sensor_id;sensor_type;location;lat;lon;timestamp;P1;durP1;ratioP1;P2;durP2;ratioP2
49464;SDS011;35358;49.342;8.802;2022-09-02T00:00:53;4.10;;;3.70;;
49464;SDS011;35358;49.342;8.802;2022-09-02T00:03:24;6.10;;;3.35;;
49464;SDS011;35358;49.342;8.802;2022-09-02T00:08:19;3.72;;;3.33;;
49464;SDS011;35358;49.342;8.802;2022-09-02T00:10:45;3.47;;;3.17;;
49464;SDS011;35358;49.342;8.802;2022-09-02T00:13:12;6.10;;;3.45;;
49464;SDS011;35358;49.342;8.802;2022-09-02T00:15:43;4.40;;;3.05;;
49464;SDS011;35358;49.342;8.802;2022-09-02T00:18:12;4.05;;;3.45;;
49464;SDS011;35358;49.342;8.802;2022-09-02T00:20:40;4.20;;;3.67;;
49464;SDS011;35358;49.342;8.802;2022-09-02T00:23:06;4.75;;;3.85;;
49464;SDS011;35358;49.342;8.802;2022-09-02T00:25:34;5.38;;;4.03;;
49464;SDS011;35358;49.342;8.802;2022-09-02T00:30:31;4.28;;;3.63;;
49464;SDS011;35358;49.342;8.802;2022-09-02T00:32:57;3.63;;;3.33;;
49464;SDS011;35358;49.342;8.802;2022-09-02T00:35:24;4.97;;;4.03;;
49464;SDS011;35358;49.342;8.802;2022-09-02T00:37:50;3.97;;;3.58;;
49464;SDS011;35358;49.342;8.802;2022-09-02T00:40:18;3.90;;;3.58;;
49464;SDS011;35358;49.342;8.802;2022-09-02T00:42:43;4.30;;;3.90;;
49464;SDS011;35358;49.342;8.802;2022-09-02T00:45:10;4.85;;;3.80;;
49464;SDS011;35358;49.342;8.802;2022-09-02T00:47:36;4.25;;;3.78;;
49464;SDS011;35358;49.342;8.802;2022-09-02T00:50:03;4.70;;;4.30;;
49464;SDS011;35358;49.342;8.802;2022-09-02T00:55:17;3.72;;;3.22;;
49464;SDS011;35358;49.342;8.802;2022-09-02T00:57:48;4.78;;;3.88;;
49464;SDS011;35358;49.342;8.802;2022-09-02T01:00:20;4.93;;;3.05;;
49464;SDS011;35358;49.342;8.802;2022-09-02T01:02:53;4.25;;;3.22;;
49464;SDS011;35358;49.342;8.802;2022-09-02T01:05:24;8.50;;;3.42;;
49464;SDS011;35358;49.342;8.802;2022-09-02T01:07:53;3.28;;;2.95;;
49464;SDS011;35358;49.342;8.802;2022-09-02T01:10:21;4.30;;;2.58;;
49464;SDS011;35358;49.342;8.802;2022-09-02T01:12:53;4.50;;;3.40;;
49464;SDS011;35358;49.342;8.802;2022-09-02T01:15:23;3.25;;;2.95;;
49464;SDS011;35358;49.342;8.802;2022-09-02T01:17:54;2.88;;;2.47;;
49464;SDS011;35358;49.342;8.802;2022-09-02T01:20:21;3.92;;;2.80;;
49464;SDS011;35358;49.342;8.802;2022-09-02T01:25:20;4.68;;;2.78;;
49464;SDS011;35358;49.342;8.802;2022-09-02T01:27:50;4.82;;;2.92;;
49464;SDS011;35358;49.342;8.802;2022-09-02T01:30:22;3.10;;;2.80;;
49464;SDS011;35358;49.342;8.802;2022-09-02T01:32:50;2.80;;;2.60;;
49464;SDS011;35358;49.342;8.802;2022-09-02T01:35:16;4.72;;;3.03;;
49464;SDS011;35358;49.342;8.802;2022-09-02T01:37:42;4.88;;;3.05;;
49464;SDS011;35358;49.342;8.802;2022-09-02T01:40:10;2.50;;;2.30;;
49464;SDS011;35358;49.342;8.802;2022-09-02T01:42:38;5.65;;;2.67;;
49464;SDS011;35358;49.342;8.802;2022-09-02T01:45:04;5.22;;;2.65;;
49464;SDS011;35358;49.342;8.802;2022-09-02T01:47:31;2.60;;;2.38;;
49464;SDS011;35358;49.342;8.802;2022-09-02T01:49:56;2.97;;;2.50;;
49464;SDS011;35358;49.342;8.802;2022-09-02T01:52:25;2.55;;;2.35;;
49464;SDS011;35358;49.342;8.802;2022-09-02T01:54:54;2.63;;;2.42;;
49464;SDS011;35358;49.342;8.802;2022-09-02T01:57:22;4.38;;;2.45;;
49464;SDS011;35358;49.342;8.802;2022-09-02T01:59:53;3.33;;;2.35;;
49464;SDS011;35358;49.342;8.802;2022-09-02T02:02:19;3.57;;;2.40;;
49464;SDS011;35358;49.342;8.802;2022-09-02T02:04:46;3.00;;;2.08;;
49464;SDS011;35358;49.342;8.802;2022-09-02T02:07:13;4.80;;;2.35;;
49464;SDS011;35358;49.342;8.802;2022-09-02T02:09:44;2.22;;;2.03;;
49464;SDS011;35358;49.342;8.802;2022-09-02T02:12:13;4.22;;;2.30;;
49464;SDS011;35358;49.342;8.802;2022-09-02T02:14:42;4.95;;;2.45;;
49464;SDS011;35358;49.342;8.802;2022-09-02T02:17:07;2.97;;;2.20;;
49464;SDS011;35358;49.342;8.802;2022-09-02T02:19:33;3.80;;;2.03;;
49464;SDS011;35358;49.342;8.802;2022-09-02T02:21:59;3.60;;;1.98;;
49464;SDS011;35358;49.342;8.802;2022-09-02T02:24:28;3.30;;;2.42;;
49464;SDS011;35358;49.342;8.802;2022-09-02T02:26:53;2.95;;;2.40;;
49464;SDS011;35358;49.342;8.802;2022-09-02T02:29:19;5.05;;;2.53;;
49464;SDS011;35358;49.342;8.802;2022-09-02T02:31:45;3.25;;;2.55;;
49464;SDS011;35358;49.342;8.802;2022-09-02T02:34:11;4.57;;;2.70;;
49464;SDS011;35358;49.342;8.802;2022-09-02T02:36:44;2.60;;;2.40;;
49464;SDS011;35358;49.342;8.802;2022-09-02T02:39:11;2.77;;;2.23;;
49464;SDS011;35358;49.342;8.802;2022-09-02T02:41:39;4.72;;;3.17;;
49464;SDS011;35358;49.342;8.802;2022-09-02T02:44:05;2.60;;;2.40;;
49464;SDS011;35358;49.342;8.802;2022-09-02T02:46:34;4.00;;;2.83;;
49464;SDS011;35358;49.342;8.802;2022-09-02T02:49:01;3.80;;;2.97;;
49464;SDS011;35358;49.342;8.802;2022-09-02T02:51:33;3.45;;;2.63;;
49464;SDS011;35358;49.342;8.802;2022-09-02T02:54:02;2.75;;;2.45;;
49464;SDS011;35358;49.342;8.802;2022-09-02T02:56:28;3.63;;;2.72;;
49464;SDS011;35358;49.342;8.802;2022-09-02T02:58:57;2.88;;;2.55;;
49464;SDS011;35358;49.342;8.802;2022-09-02T03:01:29;3.42;;;2.80;;
49464;SDS011;35358;49.342;8.802;2022-09-02T03:03:56;2.58;;;2.30;;
49464;SDS011;35358;49.342;8.802;2022-09-02T03:06:22;3.25;;;2.90;;
49464;SDS011;35358;49.342;8.802;2022-09-02T03:08:51;2.97;;;2.67;;
49464;SDS011;35358;49.342;8.802;2022-09-02T03:11:17;5.05;;;2.50;;
49464;SDS011;35358;49.342;8.802;2022-09-02T03:13:45;5.10;;;2.75;;
49464;SDS011;35358;49.342;8.802;2022-09-02T03:16:13;5.22;;;3.17;;
49464;SDS011;35358;49.342;8.802;2022-09-02T03:18:43;4.10;;;2.42;;
49464;SDS011;35358;49.342;8.802;2022-09-02T03:21:09;7.28;;;2.25;;
49464;SDS011;35358;49.342;8.802;2022-09-02T03:23:38;3.72;;;2.30;;
49464;SDS011;35358;49.342;8.802;2022-09-02T03:26:13;4.78;;;2.20;;
49464;SDS011;35358;49.342;8.802;2022-09-02T03:28:40;3.25;;;2.63;;
49464;SDS011;35358;49.342;8.802;2022-09-02T03:31:12;3.15;;;2.58;;
49464;SDS011;35358;49.342;8.802;2022-09-02T03:33:48;3.20;;;2.40;;
49464;SDS011;35358;49.342;8.802;2022-09-02T03:36:18;5.18;;;2.47;;
49464;SDS011;35358;49.342;8.802;2022-09-02T03:38:57;5.05;;;2.40;;
49464;SDS011;35358;49.342;8.802;2022-09-02T03:41:23;3.10;;;2.60;;
49464;SDS011;35358;49.342;8.802;2022-09-02T03:43:54;2.42;;;2.13;;
49464;SDS011;35358;49.342;8.802;2022-09-02T03:46:22;2.90;;;2.08;;
49464;SDS011;35358;49.342;8.802;2022-09-02T03:48:50;4.53;;;2.30;;
49464;SDS011;35358;49.342;8.802;2022-09-02T03:51:19;2.78;;;2.55;;
49464;SDS011;35358;49.342;8.802;2022-09-02T03:53:48;2.95;;;2.28;;
49464;SDS011;35358;49.342;8.802;2022-09-02T03:56:14;2.97;;;2.28;;
49464;SDS011;35358;49.342;8.802;2022-09-02T03:58:43;3.95;;;2.28;;
49464;SDS011;35358;49.342;8.802;2022-09-02T04:01:14;3.83;;;2.22;;
49464;SDS011;35358;49.342;8.802;2022-09-02T04:03:42;2.88;;;2.50;;
49464;SDS011;35358;49.342;8.802;2022-09-02T04:06:09;2.78;;;2.25;;
49464;SDS011;35358;49.342;8.802;2022-09-02T04:08:36;3.17;;;2.58;;
49464;SDS011;35358;49.342;8.802;2022-09-02T04:11:09;5.40;;;2.50;;
49464;SDS011;35358;49.342;8.802;2022-09-02T04:13:38;2.90;;;2.42;;
49464;SDS011;35358;49.342;8.802;2022-09-02T04:16:05;4.32;;;2.63;;
49464;SDS011;35358;49.342;8.802;2022-09-02T04:22:16;3.28;;;2.35;;
49464;SDS011;35358;49.342;8.802;2022-09-02T04:24:44;3.65;;;2.08;;
49464;SDS011;35358;49.342;8.802;2022-09-02T04:27:09;3.22;;;2.53;;
49464;SDS011;35358;49.342;8.802;2022-09-02T04:29:37;3.10;;;2.80;;
49464;SDS011;35358;49.342;8.802;2022-09-02T04:32:03;5.28;;;2.80;;
49464;SDS011;35358;49.342;8.802;2022-09-02T04:34:31;3.13;;;2.83;;
49464;SDS011;35358;49.342;8.802;2022-09-02T04:36:56;4.88;;;2.95;;
49464;SDS011;35358;49.342;8.802;2022-09-02T04:39:22;3.17;;;2.88;;
49464;SDS011;35358;49.342;8.802;2022-09-02T04:41:48;3.28;;;2.75;;
49464;SDS011;35358;49.342;8.802;2022-09-02T04:44:14;3.17;;;2.88;;
49464;SDS011;35358;49.342;8.802;2022-09-02T04:46:40;4.55;;;3.15;;
49464;SDS011;35358;49.342;8.802;2022-09-02T04:49:05;4.78;;;2.85;;
49464;SDS011;35358;49.342;8.802;2022-09-02T04:51:31;4.28;;;3.30;;
49464;SDS011;35358;49.342;8.802;2022-09-02T04:54:00;5.22;;;3.00;;
49464;SDS011;35358;49.342;8.802;2022-09-02T04:56:26;3.78;;;2.90;;
49464;SDS011;35358;49.342;8.802;2022-09-02T04:58:53;3.30;;;3.00;;
49464;SDS011;35358;49.342;8.802;2022-09-02T05:01:21;3.40;;;3.10;;
49464;SDS011;35358;49.342;8.802;2022-09-02T05:03:50;4.97;;;2.92;;
49464;SDS011;35358;49.342;8.802;2022-09-02T05:06:18;2.78;;;2.58;;
49464;SDS011;35358;49.342;8.802;2022-09-02T05:08:46;4.15;;;3.55;;
49464;SDS011;35358;49.342;8.802;2022-09-02T05:11:13;3.97;;;3.13;;
49464;SDS011;35358;49.342;8.802;2022-09-02T05:13:44;3.95;;;3.05;;
49464;SDS011;35358;49.342;8.802;2022-09-02T05:16:21;4.65;;;3.00;;
49464;SDS011;35358;49.342;8.802;2022-09-02T05:19:00;3.70;;;2.80;;
49464;SDS011;35358;49.342;8.802;2022-09-02T05:21:27;3.58;;;3.28;;
49464;SDS011;35358;49.342;8.802;2022-09-02T05:23:57;4.65;;;3.38;;
49464;SDS011;35358;49.342;8.802;2022-09-02T05:26:23;3.13;;;2.83;;
49464;SDS011;35358;49.342;8.802;2022-09-02T05:28:49;3.92;;;3.00;;
49464;SDS011;35358;49.342;8.802;2022-09-02T05:31:18;4.72;;;2.72;;
49464;SDS011;35358;49.342;8.802;2022-09-02T05:36:16;4.13;;;3.20;;
49464;SDS011;35358;49.342;8.802;2022-09-02T05:38:46;2.78;;;2.53;;
49464;SDS011;35358;49.342;8.802;2022-09-02T05:41:19;3.40;;;2.95;;
49464;SDS011;35358;49.342;8.802;2022-09-02T05:43:53;3.28;;;2.88;;
49464;SDS011;35358;49.342;8.802;2022-09-02T05:46:25;3.25;;;2.95;;
49464;SDS011;35358;49.342;8.802;2022-09-02T05:48:54;3.50;;;3.08;;
49464;SDS011;35358;49.342;8.802;2022-09-02T05:54:10;5.15;;;2.97;;
49464;SDS011;35358;49.342;8.802;2022-09-02T05:56:41;5.32;;;3.40;;
49464;SDS011;35358;49.342;8.802;2022-09-02T05:59:10;8.85;;;3.05;;
49464;SDS011;35358;49.342;8.802;2022-09-02T06:01:36;6.30;;;2.95;;
49464;SDS011;35358;49.342;8.802;2022-09-02T06:04:02;4.80;;;2.90;;
49464;SDS011;35358;49.342;8.802;2022-09-02T06:06:29;5.63;;;2.72;;
49464;SDS011;35358;49.342;8.802;2022-09-02T06:08:58;4.80;;;2.88;;
49464;SDS011;35358;49.342;8.802;2022-09-02T06:11:30;3.15;;;2.22;;
49464;SDS011;35358;49.342;8.802;2022-09-02T06:13:56;3.55;;;1.90;;
49464;SDS011;35358;49.342;8.802;2022-09-02T06:16:22;2.90;;;2.05;;
49464;SDS011;35358;49.342;8.802;2022-09-02T06:18:50;3.13;;;1.42;;
49464;SDS011;35358;49.342;8.802;2022-09-02T06:21:16;3.45;;;1.83;;
49464;SDS011;35358;49.342;8.802;2022-09-02T06:23:42;2.53;;;1.60;;
49464;SDS011;35358;49.342;8.802;2022-09-02T06:26:11;3.87;;;1.63;;
49464;SDS011;35358;49.342;8.802;2022-09-02T06:28:38;2.72;;;1.65;;
49464;SDS011;35358;49.342;8.802;2022-09-02T06:31:07;3.08;;;1.98;;
49464;SDS011;35358;49.342;8.802;2022-09-02T06:33:39;2.35;;;1.88;;
49464;SDS011;35358;49.342;8.802;2022-09-02T06:36:06;1.83;;;1.60;;
49464;SDS011;35358;49.342;8.802;2022-09-02T06:38:40;2.15;;;1.60;;
49464;SDS011;35358;49.342;8.802;2022-09-02T06:41:10;1.83;;;1.50;;
49464;SDS011;35358;49.342;8.802;2022-09-02T06:43:40;2.00;;;1.80;;
49464;SDS011;35358;49.342;8.802;2022-09-02T06:46:13;1.80;;;1.50;;
49464;SDS011;35358;49.342;8.802;2022-09-02T06:48:45;4.07;;;1.45;;
49464;SDS011;35358;49.342;8.802;2022-09-02T06:51:18;1.98;;;1.75;;
49464;SDS011;35358;49.342;8.802;2022-09-02T06:53:49;3.22;;;1.60;;
49464;SDS011;35358;49.342;8.802;2022-09-02T06:56:14;3.63;;;1.80;;
49464;SDS011;35358;49.342;8.802;2022-09-02T06:58:40;3.08;;;1.85;;
49464;SDS011;35358;49.342;8.802;2022-09-02T07:01:06;1.55;;;1.40;;
49464;SDS011;35358;49.342;8.802;2022-09-02T07:03:34;2.17;;;1.67;;
49464;SDS011;35358;49.342;8.802;2022-09-02T07:06:18;2.63;;;2.08;;
49464;SDS011;35358;49.342;8.802;2022-09-02T07:08:46;2.15;;;1.63;;
49464;SDS011;35358;49.342;8.802;2022-09-02T07:11:19;3.80;;;1.33;;
49464;SDS011;35358;49.342;8.802;2022-09-02T07:13:51;3.78;;;1.70;;
49464;SDS011;35358;49.342;8.802;2022-09-02T07:16:17;2.35;;;1.80;;
49464;SDS011;35358;49.342;8.802;2022-09-02T07:18:43;1.65;;;1.50;;
49464;SDS011;35358;49.342;8.802;2022-09-02T07:21:12;2.08;;;1.60;;
49464;SDS011;35358;49.342;8.802;2022-09-02T07:23:38;4.03;;;1.73;;
49464;SDS011;35358;49.342;8.802;2022-09-02T07:26:06;2.45;;;1.80;;
49464;SDS011;35358;49.342;8.802;2022-09-02T07:28:38;4.03;;;1.50;;
49464;SDS011;35358;49.342;8.802;2022-09-02T07:31:09;1.63;;;1.52;;
49464;SDS011;35358;49.342;8.802;2022-09-02T07:33:34;4.40;;;1.65;;
49464;SDS011;35358;49.342;8.802;2022-09-02T07:36:06;3.60;;;1.52;;
49464;SDS011;35358;49.342;8.802;2022-09-02T07:38:34;4.15;;;1.70;;
49464;SDS011;35358;49.342;8.802;2022-09-02T07:41:00;4.25;;;1.60;;
49464;SDS011;35358;49.342;8.802;2022-09-02T07:45:58;2.65;;;1.50;;
49464;SDS011;35358;49.342;8.802;2022-09-02T07:48:24;1.80;;;1.30;;
49464;SDS011;35358;49.342;8.802;2022-09-02T07:50:54;3.00;;;1.50;;
49464;SDS011;35358;49.342;8.802;2022-09-02T07:53:25;2.95;;;1.73;;
49464;SDS011;35358;49.342;8.802;2022-09-02T07:55:53;4.47;;;1.50;;
49464;SDS011;35358;49.342;8.802;2022-09-02T07:58:19;4.22;;;1.83;;
49464;SDS011;35358;49.342;8.802;2022-09-02T08:00:48;3.38;;;1.35;;
49464;SDS011;35358;49.342;8.802;2022-09-02T08:03:15;4.25;;;1.58;;
49464;SDS011;35358;49.342;8.802;2022-09-02T08:05:41;4.00;;;1.67;;
49464;SDS011;35358;49.342;8.802;2022-09-02T08:08:11;2.42;;;1.45;;
49464;SDS011;35358;49.342;8.802;2022-09-02T08:10:38;1.73;;;1.43;;
49464;SDS011;35358;49.342;8.802;2022-09-02T08:13:08;3.08;;;1.88;;
49464;SDS011;35358;49.342;8.802;2022-09-02T08:15:37;2.22;;;1.70;;
49464;SDS011;35358;49.342;8.802;2022-09-02T08:18:05;3.00;;;1.42;;
49464;SDS011;35358;49.342;8.802;2022-09-02T08:20:31;4.43;;;1.40;;
49464;SDS011;35358;49.342;8.802;2022-09-02T08:22:57;3.63;;;1.58;;
49464;SDS011;35358;49.342;8.802;2022-09-02T08:25:23;3.92;;;1.70;;
49464;SDS011;35358;49.342;8.802;2022-09-02T08:27:49;2.88;;;1.58;;
49464;SDS011;35358;49.342;8.802;2022-09-02T08:30:17;3.08;;;1.70;;
49464;SDS011;35358;49.342;8.802;2022-09-02T08:32:42;2.35;;;1.40;;
49464;SDS011;35358;49.342;8.802;2022-09-02T08:35:10;3.38;;;1.40;;
49464;SDS011;35358;49.342;8.802;2022-09-02T08:37:41;1.85;;;1.40;;
49464;SDS011;35358;49.342;8.802;2022-09-02T08:40:13;2.38;;;1.17;;
49464;SDS011;35358;49.342;8.802;2022-09-02T08:45:13;3.75;;;1.17;;
49464;SDS011;35358;49.342;8.802;2022-09-02T08:47:43;4.95;;;1.35;;
49464;SDS011;35358;49.342;8.802;2022-09-02T08:50:17;1.25;;;1.00;;
49464;SDS011;35358;49.342;8.802;2022-09-02T08:55:44;2.63;;;1.30;;
49464;SDS011;35358;49.342;8.802;2022-09-02T08:58:23;2.50;;;1.50;;
49464;SDS011;35358;49.342;8.802;2022-09-02T09:01:05;1.60;;;1.00;;
49464;SDS011;35358;49.342;8.802;2022-09-02T09:04:11;1.75;;;1.27;;
49464;SDS011;35358;49.342;8.802;2022-09-02T09:10:04;2.72;;;1.30;;
49464;SDS011;35358;49.342;8.802;2022-09-02T09:15:28;4.18;;;1.10;;
49464;SDS011;35358;49.342;8.802;2022-09-02T09:17:58;5.85;;;1.00;;
49464;SDS011;35358;49.342;8.802;2022-09-02T09:20:30;3.67;;;0.90;;
49464;SDS011;35358;49.342;8.802;2022-09-02T09:22:59;4.35;;;1.05;;
49464;SDS011;35358;49.342;8.802;2022-09-02T09:25:42;1.35;;;1.00;;
49464;SDS011;35358;49.342;8.802;2022-09-02T09:28:11;2.35;;;0.95;;
49464;SDS011;35358;49.342;8.802;2022-09-02T09:30:41;8.68;;;1.10;;
49464;SDS011;35358;49.342;8.802;2022-09-02T09:33:07;1.70;;;1.20;;
49464;SDS011;35358;49.342;8.802;2022-09-02T09:35:56;4.90;;;1.25;;
49464;SDS011;35358;49.342;8.802;2022-09-02T09:38:27;3.30;;;1.00;;
49464;SDS011;35358;49.342;8.802;2022-09-02T09:41:11;1.80;;;0.68;;
49464;SDS011;35358;49.342;8.802;2022-09-02T09:43:38;2.63;;;0.95;;
49464;SDS011;35358;49.342;8.802;2022-09-02T09:48:53;1.85;;;1.02;;
49464;SDS011;35358;49.342;8.802;2022-09-02T09:51:19;6.72;;;0.82;;
49464;SDS011;35358;49.342;8.802;2022-09-02T09:53:44;1.25;;;0.80;;
49464;SDS011;35358;49.342;8.802;2022-09-02T09:58:46;1.00;;;0.80;;
49464;SDS011;35358;49.342;8.802;2022-09-02T10:03:54;2.45;;;0.70;;
49464;SDS011;35358;49.342;8.802;2022-09-02T10:06:24;1.05;;;0.80;;
49464;SDS011;35358;49.342;8.802;2022-09-02T10:11:54;4.47;;;1.00;;
49464;SDS011;35358;49.342;8.802;2022-09-02T10:14:23;3.00;;;0.65;;
49464;SDS011;35358;49.342;8.802;2022-09-02T10:20:10;1.75;;;0.63;;
49464;SDS011;35358;49.342;8.802;2022-09-02T10:22:50;1.23;;;0.80;;
49464;SDS011;35358;49.342;8.802;2022-09-02T10:34:39;0.75;;;0.50;;
49464;SDS011;35358;49.342;8.802;2022-09-02T10:37:16;2.22;;;0.77;;
49464;SDS011;35358;49.342;8.802;2022-09-02T10:47:59;3.53;;;0.70;;
49464;SDS011;35358;49.342;8.802;2022-09-02T10:50:36;0.90;;;0.70;;
49464;SDS011;35358;49.342;8.802;2022-09-02T10:55:52;1.20;;;0.50;;
49464;SDS011;35358;49.342;8.802;2022-09-02T11:01:23;2.58;;;0.70;;
49464;SDS011;35358;49.342;8.802;2022-09-02T11:04:03;1.52;;;0.80;;
49464;SDS011;35358;49.342;8.802;2022-09-02T11:06:39;3.00;;;1.05;;
49464;SDS011;35358;49.342;8.802;2022-09-02T11:11:45;1.85;;;0.60;;
49464;SDS011;35358;49.342;8.802;2022-09-02T11:19:37;3.45;;;0.80;;
49464;SDS011;35358;49.342;8.802;2022-09-02T11:22:12;1.98;;;0.60;;
49464;SDS011;35358;49.342;8.802;2022-09-02T11:25:12;2.28;;;0.57;;
49464;SDS011;35358;49.342;8.802;2022-09-02T11:30:38;1.98;;;0.70;;
49464;SDS011;35358;49.342;8.802;2022-09-02T11:33:12;2.17;;;0.47;;
49464;SDS011;35358;49.342;8.802;2022-09-02T11:35:43;2.20;;;0.63;;
49464;SDS011;35358;49.342;8.802;2022-09-02T11:38:15;0.95;;;0.80;;
49464;SDS011;35358;49.342;8.802;2022-09-02T11:52:37;5.18;;;0.70;;
49464;SDS011;35358;49.342;8.802;2022-09-02T11:55:31;1.08;;;0.60;;
49464;SDS011;35358;49.342;8.802;2022-09-02T11:58:05;2.42;;;0.70;;
49464;SDS011;35358;49.342;8.802;2022-09-02T12:00:34;3.22;;;0.80;;
49464;SDS011;35358;49.342;8.802;2022-09-02T12:03:21;0.85;;;0.60;;
49464;SDS011;35358;49.342;8.802;2022-09-02T12:06:03;3.58;;;0.70;;
49464;SDS011;35358;49.342;8.802;2022-09-02T12:14:04;1.17;;;0.90;;
49464;SDS011;35358;49.342;8.802;2022-09-02T12:16:40;0.90;;;0.57;;
49464;SDS011;35358;49.342;8.802;2022-09-02T12:21:34;3.83;;;0.60;;
49464;SDS011;35358;49.342;8.802;2022-09-02T12:24:02;1.83;;;0.82;;
49464;SDS011;35358;49.342;8.802;2022-09-02T12:31:45;2.30;;;0.60;;
49464;SDS011;35358;49.342;8.802;2022-09-02T12:36:55;3.83;;;0.63;;
49464;SDS011;35358;49.342;8.802;2022-09-02T12:55:42;4.22;;;0.65;;
49464;SDS011;35358;49.342;8.802;2022-09-02T13:11:40;5.55;;;0.50;;
49464;SDS011;35358;49.342;8.802;2022-09-02T13:22:24;2.45;;;0.77;;
49464;SDS011;35358;49.342;8.802;2022-09-02T13:25:14;2.75;;;0.60;;
49464;SDS011;35358;49.342;8.802;2022-09-02T13:31:16;4.32;;;1.30;;
49464;SDS011;35358;49.342;8.802;2022-09-02T13:33:56;0.90;;;0.60;;
49464;SDS011;35358;49.342;8.802;2022-09-02T13:36:29;1.98;;;0.47;;
49464;SDS011;35358;49.342;8.802;2022-09-02T13:39:14;5.55;;;0.70;;
49464;SDS011;35358;49.342;8.802;2022-09-02T13:41:41;3.55;;;0.75;;
49464;SDS011;35358;49.342;8.802;2022-09-02T13:44:18;1.98;;;0.82;;
49464;SDS011;35358;49.342;8.802;2022-09-02T13:46:51;1.40;;;0.70;;
49464;SDS011;35358;49.342;8.802;2022-09-02T13:49:24;1.92;;;0.70;;
49464;SDS011;35358;49.342;8.802;2022-09-02T13:51:52;2.60;;;0.60;;
49464;SDS011;35358;49.342;8.802;2022-09-02T13:54:35;0.88;;;0.45;;
49464;SDS011;35358;49.342;8.802;2022-09-02T13:57:03;2.67;;;0.68;;
49464;SDS011;35358;49.342;8.802;2022-09-02T14:02:22;4.25;;;0.68;;
49464;SDS011;35358;49.342;8.802;2022-09-02T14:04:49;1.63;;;0.40;;
49464;SDS011;35358;49.342;8.802;2022-09-02T14:07:21;0.90;;;0.63;;
49464;SDS011;35358;49.342;8.802;2022-09-02T14:09:58;1.77;;;0.57;;
49464;SDS011;35358;49.342;8.802;2022-09-02T14:12:27;3.50;;;0.73;;
49464;SDS011;35358;49.342;8.802;2022-09-02T14:14:56;3.20;;;0.70;;
49464;SDS011;35358;49.342;8.802;2022-09-02T14:17:24;4.18;;;0.63;;
49464;SDS011;35358;49.342;8.802;2022-09-02T14:19:51;2.78;;;0.50;;
49464;SDS011;35358;49.342;8.802;2022-09-02T14:22:36;0.80;;;0.50;;
49464;SDS011;35358;49.342;8.802;2022-09-02T14:25:13;3.38;;;0.60;;
49464;SDS011;35358;49.342;8.802;2022-09-02T14:27:52;2.20;;;0.60;;
49464;SDS011;35358;49.342;8.802;2022-09-02T14:36:05;2.00;;;0.85;;
49464;SDS011;35358;49.342;8.802;2022-09-02T14:43:45;2.92;;;0.55;;
49464;SDS011;35358;49.342;8.802;2022-09-02T14:48:51;2.25;;;0.50;;
49464;SDS011;35358;49.342;8.802;2022-09-02T14:51:21;3.13;;;0.50;;
49464;SDS011;35358;49.342;8.802;2022-09-02T14:53:58;1.08;;;0.60;;
49464;SDS011;35358;49.342;8.802;2022-09-02T14:56:43;2.28;;;0.50;;
49464;SDS011;35358;49.342;8.802;2022-09-02T14:59:11;1.75;;;0.80;;
49464;SDS011;35358;49.342;8.802;2022-09-02T15:01:38;0.77;;;0.60;;
49464;SDS011;35358;49.342;8.802;2022-09-02T15:04:10;3.97;;;0.60;;
49464;SDS011;35358;49.342;8.802;2022-09-02T15:06:41;3.97;;;0.70;;
49464;SDS011;35358;49.342;8.802;2022-09-02T15:09:07;3.08;;;0.60;;
49464;SDS011;35358;49.342;8.802;2022-09-02T15:11:33;4.35;;;0.50;;
49464;SDS011;35358;49.342;8.802;2022-09-02T15:14:04;1.88;;;0.50;;
49464;SDS011;35358;49.342;8.802;2022-09-02T15:16:30;1.77;;;0.70;;
49464;SDS011;35358;49.342;8.802;2022-09-02T15:18:56;0.98;;;0.68;;
49464;SDS011;35358;49.342;8.802;2022-09-02T15:21:21;2.40;;;0.50;;
49464;SDS011;35358;49.342;8.802;2022-09-02T15:23:49;1.92;;;0.40;;
49464;SDS011;35358;49.342;8.802;2022-09-02T15:26:17;1.73;;;0.40;;
49464;SDS011;35358;49.342;8.802;2022-09-02T15:28:45;4.07;;;0.60;;
49464;SDS011;35358;49.342;8.802;2022-09-02T15:31:11;1.52;;;0.47;;
49464;SDS011;35358;49.342;8.802;2022-09-02T15:33:38;1.65;;;0.93;;
49464;SDS011;35358;49.342;8.802;2022-09-02T15:36:06;0.90;;;0.40;;
49464;SDS011;35358;49.342;8.802;2022-09-02T15:38:36;1.20;;;0.55;;
49464;SDS011;35358;49.342;8.802;2022-09-02T15:41:21;2.15;;;0.50;;
49464;SDS011;35358;49.342;8.802;2022-09-02T15:43:48;2.45;;;0.60;;
49464;SDS011;35358;49.342;8.802;2022-09-02T15:46:17;0.98;;;0.50;;
49464;SDS011;35358;49.342;8.802;2022-09-02T15:48:45;4.10;;;0.80;;
49464;SDS011;35358;49.342;8.802;2022-09-02T15:51:14;2.03;;;0.50;;
49464;SDS011;35358;49.342;8.802;2022-09-02T15:53:41;4.07;;;0.70;;
49464;SDS011;35358;49.342;8.802;2022-09-02T15:58:52;2.47;;;0.50;;
49464;SDS011;35358;49.342;8.802;2022-09-02T16:01:40;1.92;;;0.55;;
49464;SDS011;35358;49.342;8.802;2022-09-02T16:06:37;3.40;;;0.75;;
49464;SDS011;35358;49.342;8.802;2022-09-02T16:09:08;3.72;;;0.90;;
49464;SDS011;35358;49.342;8.802;2022-09-02T16:11:37;3.08;;;0.68;;
49464;SDS011;35358;49.342;8.802;2022-09-02T16:14:06;2.58;;;0.60;;
49464;SDS011;35358;49.342;8.802;2022-09-02T16:16:32;2.10;;;0.50;;
49464;SDS011;35358;49.342;8.802;2022-09-02T16:19:01;3.65;;;1.15;;
49464;SDS011;35358;49.342;8.802;2022-09-02T16:21:28;1.95;;;0.50;;
49464;SDS011;35358;49.342;8.802;2022-09-02T16:23:58;3.60;;;0.70;;
49464;SDS011;35358;49.342;8.802;2022-09-02T16:26:25;3.72;;;0.75;;
49464;SDS011;35358;49.342;8.802;2022-09-02T16:28:51;3.55;;;0.60;;
49464;SDS011;35358;49.342;8.802;2022-09-02T16:31:19;2.17;;;0.60;;
49464;SDS011;35358;49.342;8.802;2022-09-02T16:33:52;1.75;;;0.77;;
49464;SDS011;35358;49.342;8.802;2022-09-02T16:36:24;1.63;;;0.50;;
49464;SDS011;35358;49.342;8.802;2022-09-02T16:38:54;3.35;;;0.80;;
49464;SDS011;35358;49.342;8.802;2022-09-02T16:43:58;3.60;;;0.70;;
49464;SDS011;35358;49.342;8.802;2022-09-02T16:46:26;2.13;;;0.63;;
49464;SDS011;35358;49.342;8.802;2022-09-02T16:48:52;3.15;;;0.50;;
49464;SDS011;35358;49.342;8.802;2022-09-02T16:51:19;1.75;;;0.60;;
49464;SDS011;35358;49.342;8.802;2022-09-02T16:53:46;2.13;;;0.40;;
49464;SDS011;35358;49.342;8.802;2022-09-02T16:56:16;2.80;;;0.63;;
49464;SDS011;35358;49.342;8.802;2022-09-02T16:58:42;2.10;;;0.40;;
49464;SDS011;35358;49.342;8.802;2022-09-02T17:01:10;1.20;;;0.80;;
49464;SDS011;35358;49.342;8.802;2022-09-02T17:03:40;1.40;;;0.68;;
49464;SDS011;35358;49.342;8.802;2022-09-02T17:06:07;2.05;;;0.50;;
49464;SDS011;35358;49.342;8.802;2022-09-02T17:08:35;5.72;;;0.70;;
49464;SDS011;35358;49.342;8.802;2022-09-02T17:13:48;1.73;;;0.60;;
49464;SDS011;35358;49.342;8.802;2022-09-02T17:16:16;3.60;;;1.00;;
49464;SDS011;35358;49.342;8.802;2022-09-02T17:18:45;3.92;;;0.60;;
49464;SDS011;35358;49.342;8.802;2022-09-02T17:21:26;3.97;;;0.77;;
49464;SDS011;35358;49.342;8.802;2022-09-02T17:23:55;3.63;;;0.80;;
49464;SDS011;35358;49.342;8.802;2022-09-02T17:26:22;0.57;;;0.45;;
49464;SDS011;35358;49.342;8.802;2022-09-02T17:28:50;3.65;;;0.65;;
49464;SDS011;35358;49.342;8.802;2022-09-02T17:33:57;1.30;;;0.63;;
49464;SDS011;35358;49.342;8.802;2022-09-02T17:36:28;4.25;;;0.60;;
49464;SDS011;35358;49.342;8.802;2022-09-02T17:38:55;1.17;;;0.70;;
49464;SDS011;35358;49.342;8.802;2022-09-02T17:41:25;1.90;;;0.60;;
49464;SDS011;35358;49.342;8.802;2022-09-02T17:44:10;2.58;;;0.50;;
49464;SDS011;35358;49.342;8.802;2022-09-02T17:46:39;1.77;;;0.60;;
49464;SDS011;35358;49.342;8.802;2022-09-02T17:49:05;1.90;;;0.47;;
49464;SDS011;35358;49.342;8.802;2022-09-02T17:51:33;2.08;;;0.85;;
49464;SDS011;35358;49.342;8.802;2022-09-02T17:54:01;2.92;;;0.85;;
49464;SDS011;35358;49.342;8.802;2022-09-02T17:59:16;1.85;;;0.73;;
49464;SDS011;35358;49.342;8.802;2022-09-02T18:02:23;1.27;;;0.57;;
49464;SDS011;35358;49.342;8.802;2022-09-02T18:10:29;1.67;;;0.40;;
49464;SDS011;35358;49.342;8.802;2022-09-02T18:13:06;1.38;;;0.50;;